Weather History for KFFM - January, 2013

Change the Weather History Date:

Friday, January 11, 2013

  Actual Average Record
Temperature  
Mean Temperature 24 °F -  
Max Temperature 33 °F 13 °F 47 °F (1990)
Min Temperature 14 °F -5 °F -33 °F (1977)
Degree Days  
Heating Degree Days 41    
Moisture  
Dew Point 29 °F    
Average Humidity 97    
Maximum Humidity 100    
Minimum Humidity 86    
Precipitation  
Precipitation 0.02 in - - ()
Sea Level Pressure  
Sea Level Pressure 29.44 in    
Wind  
Wind Speed 11 mph (SE)    
Max Wind Speed 22 mph    
Max Gust Speed 30 mph    
Visibility 3 miles    
Events Fog , Snow    
Averages and records for this station are not official NWS values.
T = Trace of Precipitation, MM = Missing Value Source: NWS Daily Summary

Daily Weather History Graph

Daily Weather History Graph

Search for Another Location

Airport or City:

Trip Planner

Search our weather history database for the weather conditions in past years. The results will help you decide how hot, cold, wet, or windy it might be!

Date:

Astronomy

Jan. 11, 2013 Rise Set
Actual Time 8:05 AM CST 5:00 PM CST
Civil Twilight 7:31 AM CST 5:34 PM CST
Nautical Twilight 6:53 AM CST 6:11 PM CST
Astronomical Twilight 6:17 AM CST 6:47 PM CST
Moon 7:36 AM CST (1/11) 5:23 PM CST (1/11)
Length of Visible Light 10h 02m
Length of Day
8h 54m
Waning Crescent, 0% of the Moon is Illuminated
Jan 11
Waning Crescent
Jan 11
New
Jan 18
First Quarter
Jan 26
Full
Feb 3
Last Quarter

Hourly Weather History & Observations

Time (CST) Temp. Windchill Dew Point Humidity Pressure Visibility Wind Dir Wind Speed Gust Speed Precip Events Conditions
12:13 AM 33.8 °F 22.8 °F 32.0 °F 93% 29.57 in 10.0 mi SSE 18.4 mph - N/A   Overcast
12:34 AM 33.8 °F 24.3 °F 32.0 °F 93% 29.57 in 7.0 mi SSE 13.8 mph - N/A   Drizzle
12:53 AM 33.8 °F 23.9 °F 32.0 °F 93% 29.56 in 7.0 mi SSE 15.0 mph - N/A   Overcast
1:13 AM 33.8 °F 23.5 °F 32.0 °F 93% 29.56 in 7.0 mi SSE 16.1 mph - N/A   Overcast
1:33 AM 33.8 °F 23.9 °F 32.0 °F 93% 29.54 in 7.0 mi SSE 15.0 mph - N/A   Overcast
1:53 AM 33.8 °F 24.3 °F 32.0 °F 93% 29.54 in 5.0 mi SSE 13.8 mph - N/A   Overcast
2:13 AM 33.8 °F 23.5 °F 32.0 °F 93% 29.53 in 5.0 mi SSE 16.1 mph - N/A   Overcast
2:33 AM 33.8 °F 23.9 °F 33.8 °F 100% 29.52 in 4.0 mi SSE 15.0 mph - N/A   Overcast
2:53 AM 33.8 °F 23.9 °F 33.8 °F 100% 29.53 in 3.0 mi SSE 15.0 mph - N/A   Overcast
3:13 AM 33.8 °F 24.8 °F 32.0 °F 93% 29.52 in 2.5 mi SSE 12.7 mph - N/A   Overcast
3:33 AM 33.8 °F 25.8 °F 32.0 °F 93% 29.52 in 1.8 mi SSE 10.4 mph - N/A   Overcast
3:53 AM 33.8 °F 25.8 °F 33.8 °F 100% 29.52 in 2.0 mi South 10.4 mph - N/A   Overcast
4:13 AM 33.8 °F 25.3 °F 33.8 °F 100% 29.50 in 1.8 mi SSE 11.5 mph - N/A   Overcast
4:33 AM 33.8 °F 24.8 °F 33.8 °F 100% 29.49 in 2.0 mi SSE 12.7 mph - N/A   Overcast
4:53 AM 33.8 °F 25.3 °F 33.8 °F 100% 29.49 in 1.8 mi SSE 11.5 mph - N/A   Overcast
5:14 AM 33.8 °F 25.8 °F 33.8 °F 100% 29.48 in 1.0 mi South 10.4 mph - N/A   Overcast
6:14 AM 33.8 °F 27.0 °F 33.8 °F 100% 29.47 in 0.5 mi SSE 8.1 mph - N/A Fog Fog
6:33 AM 33.8 °F 26.4 °F 33.8 °F 100% 29.46 in 0.5 mi SSE 9.2 mph - N/A Fog Fog
6:53 AM 33.8 °F 27.7 °F 33.8 °F 100% 29.45 in 0.5 mi SSE 6.9 mph - N/A Fog Fog
7:14 AM 33.8 °F 27.7 °F 33.8 °F 100% 29.45 in 0.8 mi SSE 6.9 mph - N/A   Overcast
7:33 AM 33.8 °F 27.7 °F 33.8 °F 100% 29.46 in 0.5 mi SSE 6.9 mph - N/A Fog Fog
7:53 AM 33.8 °F 27.0 °F 33.8 °F 100% 29.46 in 0.5 mi South 8.1 mph - N/A Fog Fog
8:14 AM 33.8 °F 28.6 °F 33.8 °F 100% 29.45 in 0.5 mi SE 5.8 mph - N/A Fog Fog
8:33 AM 33.8 °F 27.7 °F 33.8 °F 100% 29.46 in 0.5 mi SSE 6.9 mph - N/A Fog Fog
8:53 AM 33.8 °F 28.6 °F 33.8 °F 100% 29.47 in 0.2 mi SSE 5.8 mph - N/A Fog Fog
9:14 AM 33.8 °F 30.8 °F 33.8 °F 100% 29.46 in 0.2 mi SSE 3.5 mph - N/A Fog Fog
9:33 AM 33.8 °F 29.6 °F 33.8 °F 100% 29.45 in 0.2 mi SE 4.6 mph - N/A Fog Fog
9:53 AM 33.8 °F 27.7 °F 33.8 °F 100% 29.46 in 0.2 mi SE 6.9 mph - N/A Fog Fog
10:14 AM 33.8 °F 29.6 °F 33.8 °F 100% 29.45 in 0.5 mi SE 4.6 mph - N/A Fog Fog
10:33 AM 33.8 °F 30.8 °F 33.8 °F 100% 29.45 in 0.5 mi ESE 3.5 mph - N/A Fog Fog
10:53 AM 33.8 °F 30.8 °F 33.8 °F 100% 29.43 in 0.5 mi ESE 3.5 mph - N/A Fog Fog
11:33 AM 33.8 °F 30.8 °F 33.8 °F 100% 29.44 in 0.5 mi SE 3.5 mph - N/A Fog Fog
11:53 AM 33.8 °F 29.6 °F 33.8 °F 100% 29.43 in 0.5 mi SE 4.6 mph - N/A Fog Fog
12:13 PM 33.8 °F - 33.8 °F 100% 29.42 in 0.5 mi Calm Calm - N/A Fog Fog
12:33 PM 33.8 °F - 33.8 °F 100% 29.41 in 0.8 mi Calm Calm - N/A   Overcast
12:53 PM 33.8 °F - 33.8 °F 100% 29.40 in 0.5 mi Calm Calm - N/A Fog Fog
1:13 PM 33.8 °F - 33.8 °F 100% 29.39 in 0.5 mi Calm Calm - N/A Fog Fog
1:33 PM 33.8 °F - 33.8 °F 100% 29.39 in 0.5 mi Calm Calm - N/A Fog Fog
1:53 PM 33.8 °F - 33.8 °F 100% 29.39 in 0.5 mi Calm Calm - 0.01 in Fog Fog
2:13 PM 33.8 °F - 33.8 °F 100% 29.40 in 0.8 mi Calm Calm - N/A   Overcast
2:33 PM 33.8 °F - 33.8 °F 100% 29.39 in 1.5 mi Calm Calm - N/A   Overcast
2:54 PM 33.8 °F - 33.8 °F 100% 29.38 in 1.5 mi Calm Calm - N/A   Overcast
3:13 PM 33.8 °F - 33.8 °F 100% 29.39 in 1.8 mi Calm Calm - 0.01 in   Overcast
3:33 PM 33.8 °F - 33.8 °F 100% 29.38 in 1.8 mi Calm Calm - 0.01 in   Overcast
3:53 PM 33.8 °F 29.6 °F 33.8 °F 100% 29.36 in 2.0 mi ENE 4.6 mph - 0.01 in   Overcast
4:13 PM 33.8 °F 30.8 °F 33.8 °F 100% 29.37 in 2.0 mi ENE 3.5 mph - N/A   Overcast
4:33 PM 33.8 °F - 33.8 °F 100% 29.37 in 2.5 mi Calm Calm - N/A   Overcast
4:53 PM 32.0 °F 23.6 °F 32.0 °F 100% 29.36 in 3.0 mi NNW 10.4 mph - N/A   Overcast
5:13 PM 32.0 °F 23.6 °F 32.0 °F 100% 29.36 in 3.0 mi NNW 10.4 mph - N/A   Overcast
5:33 PM 30.2 °F 18.5 °F 30.2 °F 100% 29.38 in 2.0 mi NNW 17.3 mph - N/A   Overcast
5:53 PM 28.4 °F 17.0 °F 28.4 °F 100% 29.37 in 2.5 mi North 15.0 mph 19.6 mph N/A   Overcast
6:13 PM 26.6 °F 13.4 °F 26.6 °F 100% 29.38 in 2.0 mi NNW 18.4 mph - N/A   Overcast
6:33 PM 24.8 °F 10.7 °F 24.8 °F 100% 29.38 in 3.0 mi NNW 19.6 mph 26.5 mph N/A   Overcast
6:53 PM 24.8 °F 11.5 °F 23.0 °F 93% 29.38 in 7.0 mi NNW 17.3 mph - N/A   Overcast
7:13 PM 23.0 °F 8.3 °F 21.2 °F 93% 29.38 in 5.0 mi NNW 19.6 mph 28.8 mph N/A   Overcast
7:33 PM 21.2 °F 5.2 °F 21.2 °F 100% 29.38 in 3.0 mi NNW 21.9 mph 29.9 mph N/A   Overcast
7:53 PM 21.2 °F 7.8 °F 19.4 °F 93% 29.39 in 4.0 mi NNW 15.0 mph 23.0 mph N/A   Overcast
8:13 PM 19.4 °F 3.2 °F 19.4 °F 100% 29.40 in 3.0 mi NNW 20.7 mph 27.6 mph N/A   Overcast
8:34 PM 19.4 °F 4.5 °F 17.6 °F 93% 29.41 in 4.0 mi NNW 17.3 mph 24.2 mph N/A   Overcast
8:53 PM 19.4 °F 5.0 °F 17.6 °F 93% 29.42 in 3.0 mi NNW 16.1 mph - N/A   Overcast
9:13 PM 17.6 °F 1.7 °F 17.6 °F 100% 29.42 in 3.0 mi NNW 18.4 mph 24.2 mph N/A   Overcast
9:34 PM 17.6 °F 2.7 °F 15.8 °F 93% 29.40 in 5.0 mi NNW 16.1 mph 26.5 mph N/A   Overcast
9:53 PM 17.6 °F 2.2 °F 15.8 °F 93% 29.40 in 7.0 mi NNW 17.3 mph 24.2 mph N/A   Overcast
10:13 PM 15.8 °F -0.6 °F 14.0 °F 93% 29.41 in 10.0 mi NNW 18.4 mph 24.2 mph N/A   Overcast
10:34 PM 15.8 °F -0.2 °F 12.2 °F 86% 29.42 in 10.0 mi NNW 17.3 mph 24.2 mph N/A   Overcast
10:53 PM 15.8 °F -1.1 °F 12.2 °F 86% 29.41 in 7.0 mi NNW 19.6 mph 26.5 mph N/A   Overcast
11:13 PM 15.8 °F 0.9 °F 12.2 °F 86% 29.41 in 4.0 mi NNW 15.0 mph - N/A Snow Light Snow
11:34 PM 15.8 °F -0.6 °F 12.2 °F 86% 29.42 in 7.0 mi NNW 18.4 mph 24.2 mph N/A   Overcast
11:53 PM 14.0 °F -3.9 °F 10.4 °F 86% 29.42 in 10.0 mi NNW 20.7 mph 24.2 mph N/A   Overcast